Time;durP1;ratioP1;P1;durP2;ratioP2;P2;SDS_P1;SDS_P2;PMS_P1;PMS_P2;Temp;Humidity;BMP_temperature;BMP_pressure;BME280_temperature;BME280_humidity;BME280_pressure;Samples;Min_cycle;Max_cycle;Signal;HPM_P1;HPM_P2
2022/03/10 00:01:08;;;;;;;38.83;21.60;;;;;;;2.65;56.62;102138.41;4990029;28;20045;-88
2022/03/10 00:03:33;;;;;;;38.85;20.55;;;;;;;2.62;56.03;102137.53;4990388;28;20045;-87
2022/03/10 00:05:59;;;;;;;39.22;20.55;;;;;;;2.62;56.21;102138.41;4980629;28;20113;-87
2022/03/10 00:08:24;;;;;;;34.10;20.00;;;;;;;2.61;56.67;102138.41;4981095;28;20026;-87
2022/03/10 00:10:49;;;;;;;41.08;21.35;;;;;;;2.52;56.43;102135.75;4989537;28;20044;-87
2022/03/10 00:13:16;;;;;;;40.50;21.15;;;;;;;2.54;56.60;102142.75;4988602;28;20046;-88
2022/03/10 00:15:41;;;;;;;39.97;21.25;;;;;;;2.46;57.05;102132.22;4987973;28;20121;-87
2022/03/10 00:18:07;;;;;;;39.03;20.92;;;;;;;2.46;57.48;102147.09;4982606;28;20532;-89
2022/03/10 00:20:32;;;;;;;35.17;19.95;;;;;;;2.37;57.21;102132.19;4984860;28;20030;-87
2022/03/10 00:22:58;;;;;;;38.42;20.98;;;;;;;2.37;57.38;102137.44;4986933;28;20088;-87
2022/03/10 00:25:23;;;;;;;39.78;21.02;;;;;;;2.32;57.59;102138.31;4988219;28;20030;-88
2022/03/10 00:27:48;;;;;;;39.33;20.63;;;;;;;2.30;57.97;102146.19;4980009;28;20487;-89
2022/03/10 00:30:15;;;;;;;41.53;21.98;;;;;;;2.19;58.26;102137.38;4984078;28;20081;-88
2022/03/10 00:32:43;;;;;;;38.25;20.05;;;;;;;2.15;58.64;102144.38;4979179;28;20042;-88
2022/03/10 00:35:09;;;;;;;38.35;20.45;;;;;;;2.10;58.58;102139.97;4981447;28;20030;-88
2022/03/10 00:37:34;;;;;;;38.05;20.27;;;;;;;2.11;58.73;102139.09;4979341;28;20062;-88
2022/03/10 00:39:59;;;;;;;43.17;22.58;;;;;;;2.07;59.35;102139.94;4987175;28;20081;-88
2022/03/10 00:42:25;;;;;;;40.55;21.77;;;;;;;2.04;59.61;102142.56;4987274;28;20112;-88
2022/03/10 00:44:50;;;;;;;43.30;21.38;;;;;;;1.98;59.49;102141.66;4985991;28;20030;-88
2022/03/10 00:47:15;;;;;;;37.45;20.92;;;;;;;1.95;59.74;102136.38;4985032;28;20034;-87
2022/03/10 00:49:41;;;;;;;38.60;22.30;;;;;;;1.90;60.08;102143.38;4984861;28;20538;-87
2022/03/10 00:52:06;;;;;;;37.30;21.23;;;;;;;1.88;60.03;102149.47;4988200;28;20022;-88
2022/03/10 00:54:31;;;;;;;41.80;21.70;;;;;;;1.83;60.21;102152.06;4988457;28;20497;-88
2022/03/10 00:56:57;;;;;;;36.53;19.65;;;;;;;1.87;60.76;102150.34;4977801;28;20026;-87
2022/03/10 00:59:22;;;;;;;41.15;22.33;;;;;;;1.92;61.20;102151.25;4983443;28;20797;-88
2022/03/10 01:01:47;;;;;;;36.60;20.50;;;;;;;1.96;61.38;102153.00;4980508;28;20306;-88
2022/03/10 01:04:12;;;;;;;38.60;21.40;;;;;;;2.04;60.75;102148.69;4987989;28;20042;-88
2022/03/10 01:06:39;;;;;;;37.97;21.15;;;;;;;2.10;60.52;102153.09;4975749;28;20042;-88
2022/03/10 01:09:04;;;;;;;37.35;20.70;;;;;;;2.09;60.56;102139.09;4980574;28;20038;-87
2022/03/10 01:11:30;;;;;;;38.42;20.95;;;;;;;2.08;60.35;102152.22;4976180;28;20030;-87
2022/03/10 01:13:55;;;;;;;37.22;20.58;;;;;;;2.05;60.37;102149.56;4949840;28;1013494;-88
2022/03/10 01:16:20;;;;;;;35.55;20.63;;;;;;;1.97;60.97;102137.28;4986645;28;20564;-87
2022/03/10 01:18:46;;;;;;;35.63;20.80;;;;;;;1.98;60.94;102149.53;4978456;28;20054;-88
2022/03/10 01:21:11;;;;;;;44.28;20.98;;;;;;;1.92;60.95;102153.88;4988678;28;20538;-88
2022/03/10 01:23:36;;;;;;;39.78;20.88;;;;;;;1.89;61.27;102152.13;4988617;28;20042;-87
2022/03/10 01:26:01;;;;;;;36.92;19.98;;;;;;;1.89;61.10;102148.63;4979254;28;20034;-87
2022/03/10 01:28:27;;;;;;;40.30;20.48;;;;;;;1.90;61.67;102145.13;4980381;28;20411;-87
2022/03/10 01:30:52;;;;;;;36.45;19.92;;;;;;;1.95;61.84;102149.50;4988042;28;20430;-88
2022/03/10 01:33:17;;;;;;;38.50;20.55;;;;;;;1.96;61.33;102145.13;4987674;28;20088;-88
2022/03/10 01:35:43;;;;;;;37.83;20.15;;;;;;;2.03;61.29;102148.69;4988404;28;20531;-87
2022/03/10 01:38:08;;;;;;;34.13;20.02;;;;;;;2.00;61.62;102139.91;4985395;28;20038;-88
2022/03/10 01:40:33;;;;;;;35.63;20.35;;;;;;;1.94;61.96;102134.63;4988515;28;20070;-88
2022/03/10 01:42:58;;;;;;;37.80;21.00;;;;;;;2.06;61.74;102135.56;4970148;28;20046;-87
2022/03/10 01:45:24;;;;;;;37.70;20.30;;;;;;;2.06;61.82;102146.97;4988529;28;20196;-87
2022/03/10 01:47:49;;;;;;;38.63;21.08;;;;;;;2.05;61.55;102150.47;4975609;28;20034;-88
2022/03/10 01:50:15;;;;;;;38.58;20.27;;;;;;;2.02;62.07;102146.94;4988163;28;20108;-87
2022/03/10 01:52:42;;;;;;;40.38;21.55;;;;;;;1.91;62.29;102134.63;4987765;28;20092;-87
2022/03/10 01:55:08;;;;;;;42.05;21.08;;;;;;;1.95;62.94;102144.25;4988029;28;20080;-87
2022/03/10 01:57:34;;;;;;;38.20;21.15;;;;;;;1.90;62.80;102135.50;4984545;28;20542;-88
2022/03/10 02:00:00;;;;;;;38.28;21.05;;;;;;;1.89;62.61;102132.88;4990300;28;20034;-87
2022/03/10 02:02:25;;;;;;;37.10;21.08;;;;;;;1.87;63.29;102131.97;4991916;28;20026;-87
2022/03/10 02:04:50;;;;;;;37.05;20.67;;;;;;;1.85;62.76;102126.72;4990253;28;20034;-87
2022/03/10 02:10:18;;;;;;;;;;;;;;;1.89;60.96;102130.25;4981769;28;20076;-87
2022/03/10 02:12:47;;;;;;;35.30;18.75;;;;;;;1.87;62.91;102131.97;4991214;28;20394;-87
2022/03/10 02:17:58;;;;;;;36.90;20.55;;;;;;;1.73;63.13;102122.28;4991154;28;20053;-87
2022/03/10 02:20:23;;;;;;;40.40;21.08;;;;;;;1.69;63.40;102124.88;4980101;28;20387;-87
2022/03/10 02:22:49;;;;;;;36.33;20.55;;;;;;;1.72;64.08;102125.75;4991351;28;20057;-87
2022/03/10 02:25:16;;;;;;;40.28;21.35;;;;;;;1.67;64.21;102114.38;4982191;28;20023;-87
2022/03/10 02:27:41;;;;;;;37.25;20.60;;;;;;;1.71;64.40;102118.78;4986209;28;20106;-87
2022/03/10 02:30:07;;;;;;;36.67;19.88;;;;;;;1.70;64.03;102118.75;4988309;28;20137;-87
2022/03/10 02:32:33;;;;;;;37.25;20.13;;;;;;;1.66;64.58;102122.22;4992189;28;20027;-87
2022/03/10 02:34:59;;;;;;;38.45;21.40;;;;;;;1.64;64.71;102124.84;4991193;28;20109;-87
2022/03/10 02:37:24;;;;;;;36.88;20.60;;;;;;;1.64;64.64;102126.59;4976803;28;20084;-87
2022/03/10 02:39:49;;;;;;;41.20;20.52;;;;;;;1.57;64.69;102122.16;4986987;28;20034;-87
2022/03/10 02:42:15;;;;;;;41.42;21.63;;;;;;;1.61;64.88;102134.44;4977410;28;20030;-87
2022/03/10 02:44:46;;;;;;;36.58;19.88;;;;;;;1.60;64.88;102130.06;4993337;28;20022;-86
2022/03/10 02:47:13;;;;;;;38.75;20.80;;;;;;;1.61;64.62;102132.69;4986728;28;20057;-87
2022/03/10 02:49:39;;;;;;;41.38;20.73;;;;;;;1.60;65.20;102132.69;4992001;28;20031;-87
2022/03/10 02:52:05;;;;;;;39.92;21.55;;;;;;;1.60;64.87;102130.06;4991362;28;20531;-87
2022/03/10 02:54:30;;;;;;;37.58;21.50;;;;;;;1.62;65.27;102128.31;4990290;28;20125;-87
2022/03/10 02:56:57;;;;;;;38.83;20.77;;;;;;;1.57;64.94;102120.41;4989457;28;20023;-87
2022/03/10 02:59:22;;;;;;;40.33;20.95;;;;;;;1.61;65.13;102134.44;4988943;28;20034;-87
2022/03/10 03:01:47;;;;;;;39.88;20.70;;;;;;;1.53;64.63;102105.50;4990831;28;20037;-88
2022/03/10 03:04:12;;;;;;;37.70;21.48;;;;;;;1.57;64.91;102124.78;4989085;28;20046;-88
2022/03/10 03:06:38;;;;;;;39.55;21.98;;;;;;;1.59;65.11;102130.91;4980438;28;20066;-87
2022/03/10 03:09:03;;;;;;;40.53;22.35;;;;;;;1.58;65.14;102135.28;4986604;28;20408;-87
2022/03/10 03:11:28;;;;;;;38.50;20.55;;;;;;;1.55;65.45;102135.28;4986723;28;20031;-88
2022/03/10 03:13:54;;;;;;;41.85;21.58;;;;;;;1.55;65.28;102132.66;4990274;28;20080;-87
2022/03/10 03:16:19;;;;;;;39.63;19.92;;;;;;;1.52;65.34;102122.13;4988397;28;20026;-87
2022/03/10 03:18:44;;;;;;;43.15;20.75;;;;;;;1.55;65.36;102126.50;4990518;28;20049;-87
2022/03/10 03:21:09;;;;;;;36.97;20.63;;;;;;;1.53;65.42;102126.50;4990808;28;20029;-87
2022/03/10 03:23:35;;;;;;;38.33;19.33;;;;;;;1.52;65.15;102126.50;4990361;28;20393;-87
2022/03/10 03:26:00;;;;;;;36.45;19.23;;;;;;;1.49;65.53;102133.47;4980421;28;20309;-86
2022/03/10 03:28:25;;;;;;;37.17;19.48;;;;;;;1.49;65.25;102128.22;4989230;28;20022;-87
2022/03/10 03:30:51;;;;;;;35.50;19.95;;;;;;;1.44;65.02;102126.44;4987334;28;20034;-88
2022/03/10 03:33:17;;;;;;;37.10;19.65;;;;;;;1.43;65.27;102138.69;4981650;28;20030;-88
2022/03/10 03:35:42;;;;;;;42.67;20.38;;;;;;;1.41;65.82;102145.66;4989383;28;20137;-87
2022/03/10 03:38:08;;;;;;;44.67;21.33;;;;;;;1.33;65.41;102141.22;4982637;28;20030;-88
2022/03/10 03:40:33;;;;;;;35.20;19.65;;;;;;;1.27;65.49;102146.44;4988031;28;20018;-87
2022/03/10 03:42:58;;;;;;;36.38;19.27;;;;;;;1.21;65.72;102148.13;4982623;28;20038;-87
2022/03/10 03:45:23;;;;;;;39.10;20.60;;;;;;;1.19;66.20;102143.72;4984761;28;20038;-87
2022/03/10 03:47:49;;;;;;;40.10;20.67;;;;;;;1.15;66.20;102137.59;4981574;28;20113;-86
2022/03/10 03:50:14;;;;;;;38.00;20.70;;;;;;;1.12;66.27;102144.53;4990061;28;20245;-87
2022/03/10 03:52:39;;;;;;;41.25;20.95;;;;;;;1.13;66.53;102143.66;4977302;28;20030;-87
2022/03/10 03:55:05;;;;;;;35.47;19.92;;;;;;;1.15;66.62;102147.19;4989503;28;20031;-88
2022/03/10 03:57:30;;;;;;;37.65;20.05;;;;;;;1.14;66.61;102148.06;4985569;28;20450;-87
2022/03/10 03:59:56;;;;;;;38.10;20.42;;;;;;;1.08;66.13;102137.50;4987502;28;20030;-87
2022/03/10 04:02:21;;;;;;;38.17;20.35;;;;;;;1.12;66.21;102152.41;4989810;28;20085;-87
2022/03/10 04:04:46;;;;;;;38.00;20.30;;;;;;;1.10;66.04;102149.78;4989885;28;20039;-88
2022/03/10 04:07:11;;;;;;;35.90;20.63;;;;;;;1.01;65.91;102146.22;4980489;28;20105;-87
2022/03/10 04:09:37;;;;;;;39.30;19.90;;;;;;;1.00;66.22;102147.91;4984974;28;20027;-87
2022/03/10 04:12:03;;;;;;;38.15;20.70;;;;;;;0.95;66.39;102153.13;4989741;28;20050;-87
2022/03/10 04:14:28;;;;;;;40.25;20.70;;;;;;;0.82;66.22;102148.63;4988121;28;20496;-88
2022/03/10 04:16:54;;;;;;;35.38;19.83;;;;;;;0.88;66.16;102169.69;4983108;28;20026;-89
2022/03/10 04:19:19;;;;;;;42.10;20.77;;;;;;;0.81;66.35;102173.09;4988992;28;20023;-87
2022/03/10 04:21:44;;;;;;;39.35;21.02;;;;;;;0.74;66.29;102168.63;4985570;28;20099;-87
2022/03/10 04:24:10;;;;;;;38.90;19.58;;;;;;;0.71;66.47;102179.06;4975062;28;20034;-87
2022/03/10 04:26:35;;;;;;;38.17;20.30;;;;;;;0.58;66.73;102170.19;4982139;28;20370;-87
2022/03/10 04:29:00;;;;;;;38.55;19.77;;;;;;;0.58;66.78;102170.19;4985284;28;20034;-87
2022/03/10 04:31:25;;;;;;;37.72;19.83;;;;;;;0.49;66.87;102163.13;4988840;28;20073;-87
2022/03/10 04:33:51;;;;;;;35.55;19.63;;;;;;;0.49;67.36;102170.09;4982118;28;20038;-87
2022/03/10 04:36:16;;;;;;;40.95;20.85;;;;;;;0.42;67.41;102163.94;4980559;28;20081;-86
2022/03/10 04:38:41;;;;;;;39.03;21.13;;;;;;;0.39;67.68;102171.75;4983970;28;20041;-88
2022/03/10 04:41:07;;;;;;;38.13;19.52;;;;;;;0.38;67.40;102166.50;4983510;28;20034;-87
2022/03/10 04:43:32;;;;;;;38.60;20.52;;;;;;;0.27;67.88;102152.38;4983679;28;20037;-88
2022/03/10 04:45:59;;;;;;;40.00;20.48;;;;;;;0.29;67.59;102162.00;4984978;28;20069;-87
2022/03/10 04:48:25;;;;;;;38.80;19.85;;;;;;;0.22;67.41;102157.56;4985202;28;20034;-87
2022/03/10 04:50:50;;;;;;;38.67;20.30;;;;;;;0.25;67.89;102168.06;4986783;28;20418;-87
2022/03/10 04:53:15;;;;;;;40.50;19.67;;;;;;;0.21;67.69;102169.78;4986302;28;20081;-87
2022/03/10 04:55:41;;;;;;;40.47;19.15;;;;;;;0.18;67.52;102164.50;4985195;28;20026;-87
2022/03/10 04:58:08;;;;;;;39.65;19.67;;;;;;;0.15;67.75;102159.22;4986682;28;20038;-88
2022/03/10 05:00:33;;;;;;;36.13;20.00;;;;;;;0.10;68.53;102149.53;4987246;28;20034;-86
2022/03/10 05:02:59;;;;;;;42.65;20.83;;;;;;;0.07;67.98;102146.88;4988437;28;20034;-87
2022/03/10 05:05:24;;;;;;;39.33;20.02;;;;;;;0.16;68.31;102157.47;4973775;28;20031;-87
2022/03/10 05:07:49;;;;;;;38.17;19.08;;;;;;;0.16;68.00;102160.09;4982790;28;20759;-86
2022/03/10 05:10:15;;;;;;;36.05;18.52;;;;;;;0.18;68.28;102159.25;4978350;28;20027;-86
2022/03/10 05:12:52;;;;;;;36.35;20.13;;;;;;;0.21;68.29;102163.66;4978928;28;20042;-87
2022/03/10 05:15:21;;;;;;;40.15;20.23;;;;;;;0.24;67.88;102159.31;4979657;28;20587;-87
2022/03/10 05:17:47;;;;;;;39.20;21.30;;;;;;;0.19;67.73;102162.75;4988007;28;20038;-86
2022/03/10 05:20:13;;;;;;;40.13;19.60;;;;;;;0.25;68.19;102168.06;4988630;28;20066;-87
2022/03/10 05:22:43;;;;;;;35.58;19.38;;;;;;;0.23;68.28;102165.44;4988984;28;20113;-87
2022/03/10 05:25:08;;;;;;;36.35;19.25;;;;;;;0.18;68.32;102166.22;4986520;28;20022;-87
2022/03/10 05:27:34;;;;;;;39.60;19.95;;;;;;;0.18;68.01;102168.84;4983980;28;20033;-87
2022/03/10 05:29:59;;;;;;;37.42;19.95;;;;;;;0.18;68.39;102168.84;4988213;28;20037;-87
2022/03/10 05:32:24;;;;;;;37.75;19.48;;;;;;;0.12;68.25;102164.41;4986955;28;20034;-87
2022/03/10 05:34:49;;;;;;;38.83;18.83;;;;;;;0.13;67.91;102175.78;4986301;28;20162;-87
2022/03/10 05:37:15;;;;;;;38.70;20.00;;;;;;;0.09;68.38;102177.47;4986832;28;20070;-88
2022/03/10 05:39:40;;;;;;;37.00;19.70;;;;;;;0.03;68.24;102176.50;4988457;28;20491;-88
2022/03/10 05:42:05;;;;;;;36.08;19.10;;;;;;;-0.01;68.24;102175.56;4987271;28;20035;-87
2022/03/10 05:44:30;;;;;;;38.40;21.00;;;;;;;-0.04;68.79;102179.03;4979179;28;20324;-87
2022/03/10 05:46:56;;;;;;;37.65;19.38;;;;;;;-0.07;68.28;102179.00;4987473;28;20073;-87
2022/03/10 05:49:21;;;;;;;36.78;19.35;;;;;;;-0.11;68.93;102174.56;4986855;28;20451;-87
2022/03/10 05:51:46;;;;;;;38.25;19.25;;;;;;;-0.13;68.88;102178.88;4988576;28;20480;-87
2022/03/10 05:54:12;;;;;;;37.40;19.73;;;;;;;-0.12;69.15;102175.44;4987559;28;20106;-87
2022/03/10 05:56:37;;;;;;;39.25;19.80;;;;;;;-0.15;69.13;102167.53;4984541;28;20038;-87
2022/03/10 05:59:02;;;;;;;37.67;20.23;;;;;;;-0.17;69.00;102174.47;4987602;28;20121;-88
2022/03/10 06:01:27;;;;;;;40.70;21.05;;;;;;;-0.21;69.29;102167.41;4981420;28;20034;-87
2022/03/10 06:03:53;;;;;;;37.00;19.83;;;;;;;-0.17;69.52;102182.31;4981874;28;20102;-88
2022/03/10 06:06:18;;;;;;;40.67;20.15;;;;;;;-0.14;69.37;102171.91;4987299;28;20045;-88
2022/03/10 06:08:43;;;;;;;40.40;19.83;;;;;;;-0.13;68.84;102178.00;4971226;28;20077;-87
2022/03/10 06:11:09;;;;;;;37.88;19.23;;;;;;;-0.15;69.23;102183.22;4984581;28;20042;-87
2022/03/10 06:13:35;;;;;;;43.33;20.63;;;;;;;-0.16;69.29;102184.09;4988006;28;20050;-88
2022/03/10 06:16:00;;;;;;;40.15;21.33;;;;;;;-0.11;69.43;102179.81;4983527;28;20573;-88
2022/03/10 06:18:26;;;;;;;38.70;20.17;;;;;;;-0.08;68.79;102179.84;4983215;28;20026;-89
2022/03/10 06:20:51;;;;;;;42.95;20.65;;;;;;;-0.05;68.98;102174.63;4988926;28;20026;-87
2022/03/10 06:23:16;;;;;;;38.83;19.15;;;;;;;0.01;68.96;102178.22;4974069;28;20124;-87
2022/03/10 06:25:41;;;;;;;36.35;19.48;;;;;;;0.04;68.12;102180.88;4982254;28;20050;-88
2022/03/10 06:28:08;;;;;;;41.90;21.25;;;;;;;0.02;69.01;102161.66;4969494;28;20039;-88
2022/03/10 06:30:34;;;;;;;37.70;19.92;;;;;;;0.11;68.55;102174.84;4971453;28;20130;-89
2022/03/10 06:32:59;;;;;;;39.15;21.42;;;;;;;0.14;68.45;102177.53;4988257;28;20049;-89
2022/03/10 06:35:24;;;;;;;42.78;21.85;;;;;;;0.17;68.64;102177.56;4986571;28;20463;-88
2022/03/10 06:37:50;;;;;;;40.40;20.67;;;;;;;0.12;68.48;102174.88;4987795;28;20038;-88
2022/03/10 06:40:15;;;;;;;38.72;19.95;;;;;;;0.22;68.39;102183.75;4988053;28;20026;-88
2022/03/10 06:42:40;;;;;;;40.38;21.05;;;;;;;0.29;67.90;102180.31;4983041;28;20046;-89
2022/03/10 06:45:06;;;;;;;39.72;20.65;;;;;;;0.37;68.14;102178.69;4979536;28;20388;-86
2022/03/10 06:47:31;;;;;;;39.85;19.65;;;;;;;0.45;67.80;102179.66;4988129;28;20058;-85
2022/03/10 06:49:56;;;;;;;37.95;20.25;;;;;;;0.54;67.66;102175.38;4984219;28;20030;-86
2022/03/10 06:52:22;;;;;;;39.10;19.85;;;;;;;0.72;67.10;102173.88;4985948;28;20391;-89
2022/03/10 06:54:47;;;;;;;37.65;20.75;;;;;;;1.07;66.55;102185.56;4987197;28;20081;-88
2022/03/10 06:57:13;;;;;;;41.85;20.08;;;;;;;1.41;65.42;102192.00;4973230;28;20358;-90
2022/03/10 06:59:38;;;;;;;36.88;20.02;;;;;;;1.70;64.11;102186.97;4979158;28;20069;-90
2022/03/10 07:02:04;;;;;;;38.70;19.50;;;;;;;1.86;63.55;102193.22;4990837;28;20065;-89
2022/03/10 07:04:29;;;;;;;42.17;20.45;;;;;;;1.86;63.39;102195.84;4987562;28;20038;-89
2022/03/10 07:06:55;;;;;;;41.15;19.55;;;;;;;1.80;62.75;102201.94;4991546;28;20034;-91
2022/03/10 07:09:20;;;;;;;37.00;19.65;;;;;;;1.70;63.25;102195.72;4988858;28;20044;-89
2022/03/10 07:11:46;;;;;;;37.97;20.35;;;;;;;1.69;63.41;102207.09;4991134;28;20050;-89
2022/03/10 07:14:11;;;;;;;37.50;19.67;;;;;;;1.65;63.40;102204.44;4984298;28;20503;-90
2022/03/10 07:16:36;;;;;;;40.67;20.60;;;;;;;1.65;63.95;102207.94;4989389;28;20480;-90
2022/03/10 07:19:02;;;;;;;37.88;20.38;;;;;;;1.60;63.32;102196.53;4990728;28;20035;-89
2022/03/10 07:21:27;;;;;;;38.50;20.38;;;;;;;1.65;63.85;102207.94;4990777;28;20026;-90
2022/03/10 07:23:52;;;;;;;39.28;20.85;;;;;;;1.60;63.30;102196.53;4986742;28;20023;-89
2022/03/10 07:26:17;;;;;;;37.63;20.67;;;;;;;1.68;63.89;102196.59;4990354;28;20026;-90
2022/03/10 07:28:43;;;;;;;38.75;21.20;;;;;;;1.74;63.68;102207.13;4985138;28;20179;-90
2022/03/10 07:31:09;;;;;;;38.85;20.38;;;;;;;1.78;63.64;102214.16;4976153;28;20518;-90
2022/03/10 07:33:34;;;;;;;43.10;20.65;;;;;;;1.82;63.30;102209.81;4978909;28;20022;-91
2022/03/10 07:36:00;;;;;;;39.55;20.73;;;;;;;1.87;63.03;102215.97;4990807;28;20283;-86
2022/03/10 07:38:25;;;;;;;41.03;21.42;;;;;;;1.89;62.81;102206.38;4993363;28;20026;-86
2022/03/10 07:40:51;;;;;;;45.08;20.80;;;;;;;1.99;62.98;102211.69;4990546;28;20038;-85
2022/03/10 07:43:17;;;;;;;36.38;20.73;;;;;;;2.05;63.02;102212.59;4987862;28;20035;-83
2022/03/10 07:45:43;;;;;;;40.60;20.42;;;;;;;2.09;62.30;102212.63;4986869;28;20084;-84
2022/03/10 07:48:08;;;;;;;42.45;21.08;;;;;;;2.11;62.45;102204.75;4974832;28;20022;-83
2022/03/10 07:50:34;;;;;;;39.35;20.83;;;;;;;2.19;61.99;102211.81;4976595;28;20071;-86
2022/03/10 07:52:59;;;;;;;37.72;19.73;;;;;;;2.24;62.54;102203.94;4973008;28;20015;-88
2022/03/10 07:55:24;;;;;;;40.30;20.63;;;;;;;2.34;62.53;102202.25;4986963;28;20614;-86
2022/03/10 07:57:50;;;;;;;40.08;21.52;;;;;;;2.43;62.15;102197.06;4989001;28;20030;-86
2022/03/10 08:00:15;;;;;;;40.78;18.77;;;;;;;2.53;62.04;102197.97;4989354;28;20365;-87
2022/03/10 08:02:41;;;;;;;37.45;19.85;;;;;;;2.63;61.58;102197.97;4986567;28;20058;-85
2022/03/10 08:05:07;;;;;;;38.33;19.30;;;;;;;2.70;61.15;102184.00;4986901;28;20108;-86
2022/03/10 08:07:33;;;;;;;40.63;20.45;;;;;;;2.86;61.04;102190.19;4987130;28;20446;-87
2022/03/10 08:09:59;;;;;;;37.00;20.13;;;;;;;3.03;60.34;102198.09;4970022;28;20131;-86
2022/03/10 08:12:29;;;;;;;39.40;20.80;;;;;;;3.15;60.61;102205.16;4973953;28;20173;-86
2022/03/10 08:14:54;;;;;;;38.08;20.25;;;;;;;3.26;60.25;102195.53;4972287;28;20031;-86
2022/03/10 08:17:20;;;;;;;38.67;20.75;;;;;;;3.40;59.93;102199.03;4986356;28;20113;-86
2022/03/10 08:19:45;;;;;;;39.55;19.25;;;;;;;3.53;59.22;102196.41;4979766;28;20452;-87
2022/03/10 08:22:10;;;;;;;40.72;19.60;;;;;;;3.67;59.54;102197.25;4986630;28;20122;-88
2022/03/10 08:24:36;;;;;;;37.25;19.17;;;;;;;3.81;59.83;102195.50;4971936;28;20030;-90
2022/03/10 08:27:01;;;;;;;38.88;20.40;;;;;;;4.13;58.24;102191.91;4979703;28;20439;-87
2022/03/10 08:29:26;;;;;;;37.30;19.33;;;;;;;4.73;57.28;102197.84;4979654;28;20330;-88
2022/03/10 08:31:52;;;;;;;39.05;20.52;;;;;;;5.61;54.75;102187.56;4976731;28;20054;-89
2022/03/10 08:34:17;;;;;;;35.83;18.75;;;;;;;6.69;52.26;102182.88;4979235;28;20031;-89
2022/03/10 08:36:42;;;;;;;40.67;19.50;;;;;;;7.69;48.97;102182.19;4969790;28;20034;-89
2022/03/10 08:39:07;;;;;;;34.80;19.20;;;;;;;8.79;47.64;102180.06;4977739;28;20030;-91
2022/03/10 08:41:33;;;;;;;34.95;20.05;;;;;;;9.63;44.67;102180.69;4976644;28;20034;-90
2022/03/10 08:43:58;;;;;;;38.13;19.55;;;;;;;10.53;43.51;102177.34;4985012;28;20386;-89
2022/03/10 08:46:23;;;;;;;32.85;18.67;;;;;;;11.46;41.33;102178.91;4987235;28;21585;-88
2022/03/10 08:48:48;;;;;;;33.83;19.80;;;;;;;12.08;39.47;102167.00;4988117;28;20105;-89
2022/03/10 08:51:14;;;;;;;33.92;19.90;;;;;;;12.56;37.10;102169.66;4989554;28;20022;-91
2022/03/10 08:53:39;;;;;;;35.88;20.45;;;;;;;12.85;36.15;102170.34;4972928;28;20113;-90
2022/03/10 08:56:06;;;;;;;34.00;20.23;;;;;;;13.19;35.81;102167.19;4970819;28;20041;-89
2022/03/10 08:58:31;;;;;;;37.15;20.63;;;;;;;13.59;35.41;102154.88;4985316;28;20506;-88
2022/03/10 09:00:57;;;;;;;34.70;19.83;;;;;;;14.36;34.81;102165.72;4983788;28;20031;-88
2022/03/10 09:03:22;;;;;;;44.13;23.92;;;;;;;15.10;33.49;102173.88;4976184;28;20116;-88
2022/03/10 09:05:47;;;;;;;37.10;21.98;;;;;;;15.53;31.85;102161.88;4988877;28;20069;-89
2022/03/10 09:08:13;;;;;;;31.45;20.15;;;;;;;16.09;30.79;102157.22;4984960;28;20472;-89
2022/03/10 09:10:40;;;;;;;37.67;21.52;;;;;;;16.62;30.62;102158.81;4969813;28;20111;-90
2022/03/10 09:13:05;;;;;;;35.13;21.02;;;;;;;17.09;29.25;102155.31;4972318;28;20520;-89
2022/03/10 09:15:32;;;;;;;32.60;21.27;;;;;;;17.32;28.68;102157.53;4984929;28;20105;-89
2022/03/10 09:17:57;;;;;;;33.13;21.00;;;;;;;17.73;28.37;102148.84;5004434;28;20034;-89
2022/03/10 09:20:22;;;;;;;30.73;21.02;;;;;;;17.94;27.39;102153.91;4984599;28;20022;-88
2022/03/10 09:22:48;;;;;;;35.58;23.13;;;;;;;17.75;27.58;102143.38;4972415;28;20030;-90
2022/03/10 09:25:15;;;;;;;34.80;21.77;;;;;;;18.13;26.86;102127.56;4988982;28;20072;-89
2022/03/10 09:27:41;;;;;;;36.13;23.00;;;;;;;17.97;26.84;102133.03;4972734;28;20034;-90
2022/03/10 09:30:09;;;;;;;36.28;22.60;;;;;;;18.02;26.81;102138.16;4978207;28;20027;-90
2022/03/10 09:32:35;;;;;;;36.03;23.00;;;;;;;18.32;26.53;102138.06;4986400;28;20117;-91
2022/03/10 09:35:05;;;;;;;38.00;23.60;;;;;;;18.81;25.96;102143.03;4974354;28;20424;-90
2022/03/10 09:37:31;;;;;;;35.15;22.63;;;;;;;19.32;25.45;102146.84;4989981;28;20037;-90
2022/03/10 09:39:56;;;;;;;37.60;23.05;;;;;;;19.55;24.67;102134.47;4981324;28;20023;-90
2022/03/10 09:42:27;;;;;;;36.88;23.15;;;;;;;19.82;24.96;102133.59;4971581;28;20042;-91
2022/03/10 09:44:53;;;;;;;36.13;23.00;;;;;;;20.33;24.59;102120.91;4988244;28;20031;-90
2022/03/10 09:47:18;;;;;;;35.92;22.63;;;;;;;21.27;23.96;102128.41;4988993;28;20027;-91
2022/03/10 09:49:44;;;;;;;35.05;22.52;;;;;;;21.89;22.60;102116.47;4990202;28;20049;-91
2022/03/10 09:52:12;;;;;;;38.50;22.88;;;;;;;21.92;22.24;102115.38;4972002;28;20476;-91
2022/03/10 09:54:38;;;;;;;35.58;22.00;;;;;;;21.55;22.26;102123.66;4989206;28;20486;-91
2022/03/10 09:57:04;;;;;;;34.47;22.50;;;;;;;21.82;22.60;102117.91;4982341;28;20061;-90
2022/03/10 09:59:30;;;;;;;33.03;22.65;;;;;;;22.37;22.65;102119.00;4982953;28;20027;-90
2022/03/10 10:01:56;;;;;;;34.88;22.73;;;;;;;23.12;21.54;102115.56;4985722;28;20531;-90
2022/03/10 10:04:22;;;;;;;33.65;22.60;;;;;;;23.65;20.70;102109.25;4972003;28;20122;-91
2022/03/10 10:07:05;;;;;;;33.78;23.25;;;;;;;23.77;21.61;102102.78;4980257;28;20026;-90
2022/03/10 10:09:50;;;;;;;32.15;20.48;;;;;;;23.69;20.89;102117.03;4990124;28;20026;-91
2022/03/10 10:12:16;;;;;;;32.47;21.35;;;;;;;23.93;20.38;102113.19;4972537;28;20488;-90
2022/03/10 10:14:43;;;;;;;32.97;21.27;;;;;;;24.20;19.76;102101.72;4975813;28;20023;-91
2022/03/10 10:17:10;;;;;;;33.63;21.55;;;;;;;24.21;19.79;102106.19;4972084;28;20113;-91
2022/03/10 10:19:37;;;;;;;30.40;20.42;;;;;;;24.32;19.76;102103.34;4975775;28;20037;-91
2022/03/10 10:22:13;;;;;;;30.70;20.55;;;;;;;25.02;19.73;102113.31;4977724;28;20031;-92
2022/03/10 10:24:38;;;;;;;28.02;20.15;;;;;;;25.87;19.05;102102.69;4975479;28;20472;-92
2022/03/10 10:27:24;;;;;;;28.60;19.20;;;;;;;25.83;19.25;102111.19;4974524;28;20074;-91
2022/03/10 10:29:56;;;;;;;31.20;19.92;;;;;;;25.55;18.66;102093.84;4991322;28;20082;-90
2022/03/10 10:32:49;;;;;;;28.65;19.23;;;;;;;25.74;19.64;102103.84;4977745;28;20038;-91
2022/03/10 10:35:20;;;;;;;26.80;18.70;;;;;;;25.83;18.62;102086.66;4974550;28;20057;-90
2022/03/10 10:37:49;;;;;;;25.63;17.60;;;;;;;26.23;18.42;102093.66;4974437;28;20061;-91
2022/03/10 10:40:20;;;;;;;30.23;18.67;;;;;;;26.04;18.21;102091.91;4981804;28;20022;-89
2022/03/10 10:42:45;;;;;;;26.92;18.25;;;;;;;25.87;18.03;102086.34;4987434;28;20030;-91
2022/03/10 10:45:30;;;;;;;26.90;19.50;;;;;;;26.29;19.20;102084.00;4991718;28;20030;-91
2022/03/10 10:47:58;;;;;;;29.83;19.30;;;;;;;26.75;18.25;102087.66;4981473;28;20042;-91
2022/03/10 10:50:23;;;;;;;29.33;18.63;;;;;;;27.12;17.47;102084.84;4988189;28;21032;-91
2022/03/10 10:52:48;;;;;;;27.40;18.85;;;;;;;27.25;17.17;102090.75;4980534;28;20033;-91
2022/03/10 10:55:14;;;;;;;28.45;19.05;;;;;;;27.68;17.17;102083.63;4991942;28;20109;-90
2022/03/10 10:57:39;;;;;;;28.90;19.00;;;;;;;28.17;16.74;102072.97;4992484;28;20491;-90
2022/03/10 11:00:09;;;;;;;24.80;17.98;;;;;;;28.88;16.68;102070.84;4998460;28;20054;-89
2022/03/10 11:02:38;;;;;;;23.70;17.15;;;;;;;29.42;16.33;102074.84;4989994;28;20053;-87
2022/03/10 11:05:04;;;;;;;22.10;16.90;;;;;;;29.66;16.09;102076.75;4992250;28;20049;-89
2022/03/10 11:07:31;;;;;;;27.88;17.65;;;;;;;29.62;15.75;102077.28;4987497;28;20045;-88
2022/03/10 11:09:56;;;;;;;24.05;17.27;;;;;;;29.66;15.87;102062.19;4985183;28;20499;-90
2022/03/10 11:12:22;;;;;;;25.52;18.25;;;;;;;29.86;15.52;102071.75;4985945;28;20047;-91
2022/03/10 11:14:48;;;;;;;22.40;16.90;;;;;;;30.12;15.75;102065.13;4981844;28;20439;-90